createdAt,value
2022-12-25T00:01:56.294Z,70.50
2022-12-25T00:04:30.400Z,70.50
2022-12-25T00:07:01.932Z,70.50
2022-12-25T00:09:45.625Z,70.50
2022-12-25T00:12:21.739Z,70.50
2022-12-25T00:15:15.228Z,70.50
2022-12-25T00:17:45.149Z,70.60
2022-12-25T00:20:16.468Z,70.70
2022-12-25T00:22:43.348Z,70.70
2022-12-25T00:25:10.127Z,70.70
2022-12-25T00:27:42.685Z,70.70
2022-12-25T00:30:28.214Z,70.70
2022-12-25T00:32:54.957Z,70.90
2022-12-25T00:35:59.385Z,70.80
2022-12-25T00:38:27.892Z,70.80
2022-12-25T00:41:12.337Z,70.70
2022-12-25T00:43:41.877Z,70.70
2022-12-25T00:46:20.496Z,70.80
2022-12-25T00:48:48.529Z,70.80
2022-12-25T00:51:21.487Z,70.90
2022-12-25T00:54:09.849Z,70.80
2022-12-25T00:57:06.353Z,70.90
2022-12-25T00:59:52.769Z,70.90
2022-12-25T01:02:32.091Z,70.90
2022-12-25T01:05:26.618Z,70.90
2022-12-25T01:08:04.767Z,70.80
2022-12-25T01:10:37.234Z,70.80
2022-12-25T01:13:17.068Z,70.80
2022-12-25T01:16:06.299Z,70.80
2022-12-25T01:18:33.212Z,70.80
2022-12-25T01:21:11.534Z,70.80
2022-12-25T01:23:43.440Z,70.80
2022-12-25T01:26:25.704Z,70.80
2022-12-25T01:28:52.650Z,70.80
2022-12-25T01:31:21.665Z,70.80
2022-12-25T01:33:49.181Z,70.80
2022-12-25T01:36:25.238Z,70.80
2022-12-25T01:38:53.438Z,70.80
2022-12-25T01:41:22.306Z,70.90
2022-12-25T01:44:15.739Z,70.90
2022-12-25T01:46:43.965Z,70.90
2022-12-25T01:49:11.056Z,70.90
2022-12-25T01:52:10.791Z,70.90
2022-12-25T01:55:18.455Z,70.80
2022-12-25T01:57:46.027Z,70.90
2022-12-25T02:00:14.079Z,71.00
2022-12-25T02:03:16.152Z,71.00
2022-12-25T02:06:12.665Z,71.00
2022-12-25T02:08:55.134Z,71.00
2022-12-25T02:11:53.251Z,71.00
2022-12-25T02:14:21.117Z,71.10
2022-12-25T02:16:58.794Z,71.10
2022-12-25T02:22:21.843Z,71.00
2022-12-25T02:25:08.367Z,71.00
2022-12-25T02:28:11.846Z,71.00
2022-12-25T02:30:55.542Z,71.10
2022-12-25T02:34:03.440Z,71.10
2022-12-25T02:36:51.538Z,71.10
2022-12-25T02:39:50.875Z,71.70
2022-12-25T02:43:04.643Z,71.10
2022-12-25T02:46:14.576Z,71.60
2022-12-25T02:49:37.555Z,71.10
2022-12-25T02:52:32.298Z,71.10
2022-12-25T02:55:40.966Z,71.10
2022-12-25T02:58:31.295Z,71.20
2022-12-25T03:01:33.178Z,71.20
2022-12-25T03:07:06.113Z,71.20
2022-12-25T03:09:59.903Z,71.20
2022-12-25T03:12:57.844Z,71.10
2022-12-25T03:18:39.849Z,71.20
2022-12-25T03:24:32.447Z,71.30
2022-12-25T03:26:59.217Z,71.30
2022-12-25T03:29:51.243Z,71.30
2022-12-25T03:32:42.865Z,71.30
2022-12-25T03:35:44.319Z,71.20
2022-12-25T03:38:46.122Z,71.10
2022-12-25T03:41:41.707Z,71.30
2022-12-25T03:44:59.907Z,71.10
2022-12-25T03:48:18.176Z,71.20
2022-12-25T03:51:14.392Z,71.20
2022-12-25T03:57:15.544Z,71.30
2022-12-25T04:00:01.285Z,71.30
2022-12-25T04:03:07.359Z,71.30
2022-12-25T04:05:53.189Z,71.30
2022-12-25T04:08:44.025Z,71.30
2022-12-25T04:11:44.424Z,71.30
2022-12-25T04:14:29.576Z,71.30
2022-12-25T04:17:42.852Z,71.40
2022-12-25T04:20:37.942Z,71.30
2022-12-25T04:23:46.393Z,71.30
2022-12-25T04:26:37.921Z,71.30
2022-12-25T04:29:39.295Z,71.30
2022-12-25T04:32:24.725Z,71.30
2022-12-25T04:35:10.140Z,71.30
2022-12-25T04:37:37.107Z,71.40
2022-12-25T04:40:23.593Z,71.30
2022-12-25T04:45:32.369Z,71.40
2022-12-25T04:48:04.700Z,71.40
2022-12-25T04:50:55.242Z,71.40
2022-12-25T04:53:28.542Z,71.30
2022-12-25T04:56:11.763Z,71.30
2022-12-25T04:58:58.040Z,71.30
2022-12-25T05:01:31.740Z,71.40
2022-12-25T05:04:07.824Z,71.20
2022-12-25T05:06:51.160Z,71.30
2022-12-25T05:09:48.652Z,71.30
2022-12-25T05:12:24.781Z,71.30
2022-12-25T05:14:55.960Z,71.30
2022-12-25T05:20:38.155Z,71.20
2022-12-25T05:23:15.311Z,71.30
2022-12-25T05:25:51.692Z,71.30
2022-12-25T05:28:32.280Z,71.30
2022-12-25T05:31:12.751Z,71.30
2022-12-25T05:33:48.815Z,71.30
2022-12-25T05:36:29.222Z,71.40
2022-12-25T05:39:14.909Z,71.60
2022-12-25T05:41:48.014Z,71.30
2022-12-25T05:44:25.480Z,71.40
2022-12-25T05:47:01.480Z,71.30
2022-12-25T05:49:40.055Z,71.50
2022-12-25T05:52:17.798Z,71.40
2022-12-25T05:55:01.276Z,71.40
2022-12-25T05:57:47.343Z,71.40
2022-12-25T06:00:31.337Z,71.40
2022-12-25T06:03:02.832Z,71.50
2022-12-25T06:05:43.668Z,71.50
2022-12-25T06:08:21.520Z,71.50
2022-12-25T06:10:48.583Z,71.50
2022-12-25T06:13:15.610Z,71.60
2022-12-25T06:15:42.752Z,71.50
2022-12-25T06:18:09.564Z,71.60
2022-12-25T06:20:36.490Z,71.50
2022-12-25T06:23:03.303Z,71.50
2022-12-25T06:25:30.110Z,71.60
2022-12-25T06:27:57.080Z,71.50
2022-12-25T06:30:23.938Z,71.50
2022-12-25T06:32:50.729Z,71.50
2022-12-25T06:35:17.505Z,71.50
2022-12-25T06:37:44.279Z,71.50
2022-12-25T06:40:13.041Z,71.50
2022-12-25T06:42:39.873Z,71.50
2022-12-25T06:45:07.138Z,71.70
2022-12-25T06:47:33.878Z,71.40
2022-12-25T06:50:00.679Z,71.50
2022-12-25T06:52:27.463Z,71.60
2022-12-25T06:54:54.324Z,72.10
2022-12-25T06:57:21.211Z,71.70
2022-12-25T06:59:53.133Z,71.80
2022-12-25T07:02:23.215Z,71.80
2022-12-25T07:04:50.492Z,71.80
2022-12-25T07:07:24.702Z,71.80
2022-12-25T07:09:51.506Z,71.70
2022-12-25T07:12:20.841Z,71.80
2022-12-25T07:14:50.117Z,71.70
2022-12-25T07:17:17.757Z,71.70
2022-12-25T07:19:45.953Z,71.60
2022-12-25T07:22:13.739Z,71.60
2022-12-25T07:24:42.316Z,71.60
2022-12-25T07:27:09.101Z,71.50
2022-12-25T07:29:35.868Z,71.50
2022-12-25T07:32:02.767Z,71.40
2022-12-25T07:34:30.805Z,71.40
2022-12-25T07:36:57.588Z,71.40
2022-12-25T07:39:24.356Z,71.30
2022-12-25T07:41:53.790Z,71.40
2022-12-25T07:44:20.588Z,71.30
2022-12-25T07:46:49.315Z,71.30
2022-12-25T07:49:41.663Z,71.30
2022-12-25T07:52:49.605Z,71.40
2022-12-25T07:56:31.671Z,71.40
2022-12-25T07:59:40.661Z,71.40
2022-12-25T08:02:31.456Z,71.50
2022-12-25T08:05:19.760Z,71.50
2022-12-25T08:08:03.020Z,71.50
2022-12-25T08:10:54.191Z,71.60
2022-12-25T08:16:47.162Z,71.70
2022-12-25T08:19:36.634Z,71.80
2022-12-25T08:22:26.996Z,71.70
2022-12-25T08:28:01.687Z,71.80
2022-12-25T08:30:28.686Z,71.90
2022-12-25T08:32:55.568Z,71.90
2022-12-25T08:35:22.391Z,71.90
2022-12-25T08:37:49.193Z,72.40
2022-12-25T08:40:16.064Z,72.00
2022-12-25T08:42:42.967Z,71.90
2022-12-25T08:45:10.408Z,72.00
2022-12-25T08:47:37.210Z,72.00
2022-12-25T08:50:04.546Z,72.10
2022-12-25T08:52:31.589Z,72.10
2022-12-25T08:54:58.310Z,72.20
2022-12-25T08:57:25.145Z,72.10
2022-12-25T08:59:51.844Z,72.20
2022-12-25T09:02:19.426Z,72.20
2022-12-25T09:04:46.748Z,72.80
2022-12-25T09:07:13.647Z,72.30
2022-12-25T09:09:43.509Z,72.30
2022-12-25T09:12:10.307Z,72.30
2022-12-25T09:14:37.030Z,72.40
2022-12-25T09:17:03.795Z,72.40
2022-12-25T09:19:31.005Z,72.40
2022-12-25T09:21:58.915Z,72.40
2022-12-25T09:24:25.783Z,72.40
2022-12-25T09:26:52.709Z,72.40
2022-12-25T09:29:19.501Z,72.40
2022-12-25T09:31:46.267Z,72.40
2022-12-25T09:34:17.192Z,72.40
2022-12-25T09:36:45.857Z,72.50
2022-12-25T09:39:12.648Z,72.50
2022-12-25T09:42:13.344Z,72.50
2022-12-25T09:44:46.966Z,72.60
2022-12-25T09:47:18.600Z,72.70
2022-12-25T09:49:58.199Z,72.70
2022-12-25T09:52:42.016Z,72.70
2022-12-25T09:55:20.025Z,72.80
2022-12-25T09:57:54.226Z,72.80
2022-12-25T10:00:24.240Z,72.80
2022-12-25T10:03:09.904Z,72.70
2022-12-25T10:05:56.802Z,72.70
2022-12-25T10:08:55.057Z,72.70
2022-12-25T10:11:49.919Z,72.60
2022-12-25T10:15:07.702Z,72.60
2022-12-25T10:17:43.874Z,72.60
2022-12-25T10:20:17.700Z,72.60
2022-12-25T10:22:49.826Z,72.60
2022-12-25T10:25:47.526Z,72.60
2022-12-25T10:28:23.480Z,72.60
2022-12-25T10:30:52.742Z,72.60
2022-12-25T10:33:36.957Z,72.60
2022-12-25T10:36:03.991Z,72.60
2022-12-25T10:42:38.557Z,72.60
2022-12-25T10:45:11.703Z,72.70
2022-12-25T10:47:59.544Z,72.80
2022-12-25T10:50:29.020Z,72.80
2022-12-25T10:53:01.369Z,72.60
2022-12-25T10:58:39.353Z,73.10
2022-12-25T11:01:08.875Z,72.40
2022-12-25T11:03:48.495Z,72.50
2022-12-25T11:06:28.609Z,72.90
2022-12-25T11:13:20.148Z,72.50
2022-12-25T11:16:26.763Z,72.40
2022-12-25T11:18:55.691Z,72.50
2022-12-25T11:21:34.689Z,72.50
2022-12-25T11:24:28.368Z,72.50
2022-12-25T11:27:09.776Z,72.50
2022-12-25T11:34:06.858Z,72.40
2022-12-25T11:36:57.571Z,72.30
2022-12-25T11:39:34.059Z,72.40
2022-12-25T11:42:54.332Z,72.40
2022-12-25T11:52:00.273Z,72.30
2022-12-25T11:54:42.817Z,72.50
2022-12-25T11:57:16.070Z,72.50
2022-12-25T12:00:38.139Z,72.40
2022-12-25T12:03:11.601Z,72.60
2022-12-25T12:05:54.165Z,72.60
2022-12-25T12:08:21.099Z,72.60
2022-12-25T12:11:29.697Z,72.50
2022-12-25T12:17:43.451Z,72.50
2022-12-25T12:20:43.662Z,72.40
2022-12-25T12:23:26.004Z,72.40
2022-12-25T12:25:53.743Z,72.40
2022-12-25T12:28:52.094Z,72.40
2022-12-25T12:31:45.704Z,72.30
2022-12-25T12:34:52.585Z,72.30
2022-12-25T12:37:44.124Z,72.30
2022-12-25T12:40:25.658Z,72.40
2022-12-25T12:45:56.449Z,72.50
2022-12-25T12:48:47.936Z,72.40
2022-12-25T12:52:05.484Z,72.50
2022-12-25T12:54:59.251Z,72.30
2022-12-25T12:57:49.155Z,72.30
2022-12-25T13:01:05.921Z,72.30
2022-12-25T13:04:39.292Z,72.30
2022-12-25T13:07:58.611Z,72.30
2022-12-25T13:10:52.040Z,72.20
2022-12-25T13:14:07.641Z,72.10
2022-12-25T13:16:57.348Z,72.00
2022-12-25T13:19:27.575Z,71.90
2022-12-25T13:26:37.259Z,71.80
2022-12-25T13:32:58.048Z,71.70
2022-12-25T13:35:25.106Z,71.60
2022-12-25T13:37:53.300Z,71.70
2022-12-25T13:40:20.095Z,71.60
2022-12-25T13:49:45.249Z,71.80
2022-12-25T14:03:04.223Z,71.80
2022-12-25T14:06:28.218Z,71.70
2022-12-25T14:12:31.865Z,71.70
2022-12-25T14:15:56.788Z,71.60
2022-12-25T14:19:15.131Z,71.60
2022-12-25T14:25:00.308Z,71.50
2022-12-25T14:27:30.452Z,71.50
2022-12-25T14:30:24.838Z,71.40
2022-12-25T14:39:38.176Z,71.40
2022-12-25T14:45:38.465Z,71.40
2022-12-25T14:48:41.030Z,71.50
2022-12-25T14:51:56.445Z,71.40
2022-12-25T15:23:54.964Z,70.90
2022-12-25T15:30:20.693Z,71.00
2022-12-25T15:33:45.366Z,70.90
2022-12-25T15:40:36.796Z,70.70
2022-12-25T15:58:20.872Z,70.50
2022-12-25T16:04:41.400Z,70.40
2022-12-25T16:07:47.154Z,70.60
2022-12-25T16:11:11.789Z,70.50
2022-12-25T16:14:13.416Z,70.30
2022-12-25T16:17:19.278Z,70.20
2022-12-25T16:20:11.957Z,70.00
2022-12-25T16:46:59.304Z,69.80
2022-12-25T16:50:00.083Z,69.60
2022-12-25T16:52:26.969Z,69.30
2022-12-25T16:54:53.717Z,69.70
2022-12-25T17:05:10.339Z,69.70
2022-12-25T17:07:50.441Z,68.80
2022-12-25T17:11:03.638Z,69.40
2022-12-25T17:13:55.697Z,69.40
2022-12-25T17:20:19.473Z,69.30
2022-12-25T17:23:14.326Z,69.40
2022-12-25T17:26:39.990Z,69.30
2022-12-25T17:29:48.774Z,68.80
2022-12-25T17:32:33.554Z,69.00
2022-12-25T17:35:27.814Z,69.10
2022-12-25T17:38:15.982Z,69.20
2022-12-25T17:41:27.359Z,69.20
2022-12-25T17:46:55.362Z,69.10
2022-12-25T17:52:43.704Z,69.10
2022-12-25T17:55:30.300Z,69.20
2022-12-25T17:58:24.878Z,69.50
2022-12-25T18:01:11.646Z,68.80
2022-12-25T18:04:02.757Z,68.90
2022-12-25T18:06:54.836Z,69.00
2022-12-25T18:12:51.089Z,68.80
2022-12-25T18:15:44.846Z,68.90
2022-12-25T18:18:52.611Z,68.90
2022-12-25T18:24:41.619Z,68.90
2022-12-25T18:27:15.777Z,68.90
2022-12-25T18:33:08.925Z,68.20
2022-12-25T18:35:58.117Z,68.80
2022-12-25T18:38:39.816Z,68.70
2022-12-25T18:41:32.062Z,68.70
2022-12-25T18:44:16.933Z,68.30
2022-12-25T18:47:04.569Z,68.70
2022-12-25T18:49:45.441Z,68.60
2022-12-25T18:52:47.851Z,68.40
2022-12-25T18:55:36.087Z,68.60
2022-12-25T18:58:03.901Z,68.60
2022-12-25T19:01:08.550Z,68.60
2022-12-25T19:03:37.769Z,69.00
2022-12-25T19:06:20.530Z,68.30
2022-12-25T19:09:08.949Z,68.50
2022-12-25T19:12:01.487Z,68.60
2022-12-25T19:14:47.310Z,68.40
2022-12-25T19:17:56.949Z,68.50
2022-12-25T19:20:53.881Z,68.40
2022-12-25T19:23:50.371Z,68.40
2022-12-25T19:29:57.346Z,68.40
2022-12-25T19:32:35.379Z,68.20
2022-12-25T19:35:20.196Z,68.30
2022-12-25T19:37:59.413Z,68.10
2022-12-25T19:42:06.940Z,68.30
2022-12-25T19:48:07.843Z,68.10
2022-12-25T19:50:56.810Z,68.20
2022-12-25T19:53:56.760Z,68.00
2022-12-25T20:00:13.509Z,68.10
2022-12-25T20:05:53.648Z,68.10
2022-12-25T20:08:43.167Z,68.00
2022-12-25T20:11:38.738Z,68.00
2022-12-25T20:14:32.984Z,68.10
2022-12-25T20:17:26.292Z,67.70
2022-12-25T20:20:27.415Z,67.90
2022-12-25T20:23:09.567Z,67.40
2022-12-25T20:29:08.580Z,67.80
2022-12-25T20:31:54.879Z,67.90
2022-12-25T20:34:36.583Z,67.90
2022-12-25T20:38:13.654Z,67.90
2022-12-25T20:41:25.579Z,67.90
2022-12-25T20:44:01.670Z,67.70
2022-12-25T20:49:55.632Z,67.60
2022-12-25T20:52:51.135Z,67.70
2022-12-25T20:55:35.857Z,67.60
2022-12-25T20:58:37.913Z,67.30
2022-12-25T21:01:28.328Z,67.40
2022-12-25T21:07:06.026Z,67.50
2022-12-25T21:09:41.434Z,67.50
2022-12-25T21:12:25.490Z,67.60
2022-12-25T21:15:13.346Z,67.60
2022-12-25T21:18:25.090Z,67.40
2022-12-25T21:20:54.229Z,67.40
2022-12-25T21:23:47.910Z,67.50
2022-12-25T21:26:47.979Z,67.60
2022-12-25T21:30:15.116Z,67.60
2022-12-25T21:33:18.297Z,67.60
2022-12-25T21:35:57.406Z,67.70
2022-12-25T21:38:40.321Z,67.60
2022-12-25T21:44:13.534Z,67.70
2022-12-25T21:50:38.907Z,67.90
2022-12-25T21:53:06.631Z,67.80
2022-12-25T21:55:36.295Z,67.80
2022-12-25T21:58:03.107Z,67.80
2022-12-25T22:00:29.912Z,67.80
2022-12-25T22:02:57.521Z,67.80
2022-12-25T22:05:42.995Z,67.90
2022-12-25T22:11:29.601Z,67.70
2022-12-25T22:14:57.386Z,67.80
2022-12-25T22:18:07.689Z,67.90
2022-12-25T22:36:28.195Z,68.20
2022-12-25T22:39:11.412Z,68.30
2022-12-25T22:41:54.522Z,68.30
2022-12-25T22:44:48.987Z,68.50
2022-12-25T22:47:33.746Z,68.50
2022-12-25T22:53:41.799Z,68.60
2022-12-25T22:56:24.203Z,68.50
2022-12-25T22:59:06.758Z,68.40
2022-12-25T23:02:10.183Z,68.10
2022-12-25T23:07:57.913Z,68.40
2022-12-25T23:10:29.324Z,68.20
2022-12-25T23:13:51.904Z,68.30
2022-12-25T23:16:55.247Z,68.30
2022-12-25T23:24:15.639Z,68.20
2022-12-25T23:27:19.245Z,68.20
2022-12-25T23:36:04.996Z,67.90
2022-12-25T23:38:45.962Z,67.60
2022-12-25T23:45:06.069Z,67.70
2022-12-25T23:53:32.641Z,67.80
2022-12-25T23:56:18.150Z,67.90
2022-12-25T23:59:05.824Z,67.80
